x

West Sea Otter (46204) Wave Buoy

4:00pm - Mon 23rd Jan 2017 All times are PST. -8 hours from GMT.

  • Sig Wave height 8.5ft
  • Peak Period 13s
  • Wind
    7mph, 9mph gusts
  • Sea Temp 47°f
  • 空気 Temp 47°f
  • Sea Pressure 1015mb
  • West Sea Otter
  • West Sea Otter

More Historic Weather Station data

Upgrade to MSW Pro to gain access to the past 30 days of data for over 8000 Wavebouys and Weather Stations around the globe.

Join Pro

Comparision Forecast

View Surf forecast
   
Mon 01/23 4:00pm 8.5ft 13s 7 9 mph 1015mb 47f 47f
3:00pm 7.5ft 12s 9 11 mph 1014.4mb 47f 47f
2:00pm 7.5ft 12s 9 11 mph 1014.2mb 47f 47f
1:00pm 8ft 13s 4 7 mph 1013.6mb 47f 46f
12:00pm 7.5ft 12s 2 4 mph 1013mb 47f 46f
11:00am 8ft 11s 7 9 mph 1012.7mb 47f 46f
10:00am 8ft 13s 7 11 mph 1012mb 47f 46f
9:00am 8ft 12s 7 11 mph 1011.4mb 47f 46f
8:00am 8ft 12s 7 11 mph 1010.5mb 47f 46f
7:00am 8ft 13s 7 11 mph 1009.8mb 47f 46f
6:00am 7.5ft 12s 9 11 mph 1008.7mb 47f 46f
5:00am 8ft 12s 9 11 mph 1007.9mb 47f 46f
4:00am 8ft 12s 9 11 mph 1007.5mb 47f 46f
3:00am 9ft 13s 9 13 mph 1007mb 47f 47f
1:00am 10ft 11s 9 13 mph 1005.3mb 47f 47f
12:00am 9.5ft 12s 9 13 mph 1004.5mb 47f 47f
Sun 01/22 11:00pm 10ft 14s 18 22 mph 1003.3mb 47f 47f
10:00pm 10ft 13s 18 22 mph 1002.4mb 47f 47f
9:00pm 7.5ft 14s 18 22 mph 1001.5mb 47f 47f
8:00pm 6ft 12s 13 18 mph 1000.7mb 47f 48f
7:00pm 6.5ft 10s 13 18 mph 999.9mb 47f 48f
6:00pm 7ft 13s 20 25 mph 998.8mb 47f 48f
5:00pm 6ft 12s 16 20 mph 998.3mb 47f 48f
4:00pm 6.5ft 13s 9 13 mph 997.8mb 47f 48f
3:00pm 6.5ft 12s 11 13 mph 996.9mb 47f 48f
2:00pm 7ft 14s 7 11 mph 996mb 48f 47f
1:00pm 7.5ft 14s 16 20 mph 995.5mb 48f 48f
12:00pm 7ft 14s 13 18 mph 995.3mb 48f 47f
11:00am 8ft 14s 16 20 mph 995mb 48f 47f
10:00am 8ft 12s 20 25 mph 994.1mb 48f 47f
9:00am 8ft 14s 18 22 mph 993.6mb 48f 47f
8:00am 8.5ft 13s 16 20 mph 993.7mb 48f 48f
7:00am 8.5ft 14s 13 18 mph 994.3mb 48f 47f
6:00am 10ft 15s 20 27 mph 994.6mb 48f 48f
5:00am 10ft 15s 25 31 mph 995mb 48f 48f
4:00am 11ft 14s 25 31 mph 995.3mb 48f 48f
3:00am 10.5ft 14s 27 34 mph 995.8mb 48f 48f
2:00am 11.5ft 15s 27 31 mph 995.9mb 48f 47f
1:00am 11ft 14s 29 36 mph 995.5mb 48f 47f
12:00am 11ft 16s 31 38 mph 995.2mb 48f 47f
Sat 01/21 11:00pm 12ft 15s 31 38 mph 994.8mb 48f 47f
10:00pm 11.5ft 15s 29 38 mph 994.3mb 48f 47f
9:00pm 10.5ft 15s 34 40 mph 993.5mb 48f 47f
8:00pm 11.5ft 14s 34 43 mph 993.3mb 48f 47f
7:00pm 12ft 16s 34 40 mph 992.8mb 48f 47f
6:00pm 11ft 14s 29 40 mph 992.4mb 48f 48f
5:00pm 10ft 16s 27 34 mph 992.3mb 48f 47f
4:00pm 11ft 16s 25 31 mph 992.1mb 48f 47f
3:00pm 10ft 15s 25 31 mph 991.9mb 48f 47f
2:00pm 10ft 16s 22 27 mph 991.9mb 48f 47f
1:00pm 10.5ft 17s 20 27 mph 991.8mb 48f 46f
12:00pm 10ft 17s 25 31 mph 991.5mb 48f 46f
11:00am 10ft 18s 25 31 mph 991.1mb 48f 46f
10:00am 9ft 16s 25 29 mph 990.6mb 48f 46f
9:00am 9ft 16s 27 29 mph 989.7mb 48f 46f
8:00am 8.5ft 18s 18 22 mph 989.3mb 48f 46f
7:00am 9.5ft 16s 16 20 mph 988.9mb 48f 45f
6:00am 9.5ft 16s 13 16 mph 988.7mb 48f 45f
5:00am 10ft 18s 13 18 mph 988.8mb 48f 46f
4:00am 9ft 16s 13 16 mph 988.6mb 48f 46f
3:00am 8ft 17s 18 22 mph 988.5mb 48f 46f
2:00am 7ft 18s 16 18 mph 988.3mb 48f 46f
1:00am 6.5ft 18s 16 20 mph 987.8mb 48f 46f
12:00am 6ft 14s 13 16 mph 987.7mb 48f 46f
Fri 01/20 11:00pm 6ft 11s 11 16 mph 987.6mb 48f 46f
10:00pm 6ft 14s 9 11 mph 987.4mb 48f 46f
9:00pm 6ft 13s 16 18 mph 987.2mb 48f 46f
8:00pm 6ft 15s 16 18 mph 986.7mb 48f 46f
7:00pm 7ft 16s 18 22 mph 986.6mb 48f 47f
6:00pm 7.5ft 15s 18 22 mph 986.5mb 48f 47f
5:00pm 7.5ft 15s 18 22 mph 986.6mb 48f 47f
4:00pm 8ft 14s 18 22 mph 987mb 48f 47f
3:00pm 7.5ft 11s 18 22 mph 987.4mb 48f 47f
2:00pm 8ft 14s 13 20 mph 987.7mb 48f 46f
1:00pm 9ft 14s 13 18 mph 988.2mb 48f 46f
12:00pm 9ft 14s 16 20 mph 988.7mb 48f 45f
11:00am 10ft 12s 13 20 mph 989mb 48f 46f
10:00am 11ft 14s 13 18 mph 989mb 48f 46f
9:00am 10ft 16s 13 18 mph 989mb 48f 45f
8:00am 10ft 14s 13 18 mph 989.1mb 48f 46f
7:00am 11ft 15s 18 20 mph 989.1mb 48f 46f
6:00am 11.5ft 16s 20 22 mph 989.3mb 48f 46f
5:00am 13ft 14s 20 25 mph 989.6mb 48f 46f
4:00am 13ft 16s 18 22 mph 990mb 48f 46f
3:00am 12.5ft 16s 18 22 mph 990.5mb 48f 46f
2:00am 14ft 16s 18 22 mph 990.7mb 48f 46f